首页
METAR-TAF:

METAR-TAF

机场 :

阿拉德, 罗马尼亚

纬度: 46-12N, 经度: 021-24E, 海拔: 117米

当前天气观测

该预报发布于34分钟前的22:00 UTC
风速3节,风向西南
温度 10°C
湿度 93%
气压 1014 hPa
能见度10公里或以上
多云层高于4300英尺

METAR: LRAR 312200Z 22003KT 9999 BKN043 10/09 Q1014

时间: 01:34 (22:34 UTC)

预报

该预报发布于2小时和34分钟前的20:00 UTC
预报有效从31日的 21点(UTC)到 01日的 06点(UTC)
风速4节,风向多变
能见度10公里或以上
散云层高于4500英尺
短暂存在
从 01日的 01点(UTC)到 01日的 05点(UTC)
能見度: 5000
散云层高于3500英尺, 积雨云.
多云层高于4000英尺
小阵雨

TAF: LRAR 312000Z 3121/0106 VRB04KT 9999 SCT045 TEMPO 0101/0105 5000 -SHRA SCT035CB BKN040

超过4000个机场的气象观测和天气预报(METAR&TAF报告)。

可查询的气象台以黄色和红色小点在地图上表示。

将鼠标移到小点上方,可查看气象台名称。

然后点击查看天气观测和预报。

如需切换地图:点击带黑十字的绿色按钮放大地图;点击带横线的绿色按钮缩小地图;或者点击绿色箭头查看邻近地区的地图。


METAR-TAF: